createdAt,value
2023-01-25T00:00:32.999Z,100895.94
2023-01-25T00:03:00.232Z,100903.38
2023-01-25T00:05:27.642Z,100910.13
2023-01-25T00:07:54.887Z,100907.63
2023-01-25T00:10:24.372Z,100903.34
2023-01-25T00:12:51.841Z,100889.94
2023-01-25T00:15:19.333Z,100889.16
2023-01-25T00:17:48.022Z,100882.53
2023-01-25T00:20:16.097Z,100884.97
2023-01-25T00:22:43.353Z,100879.09
2023-01-25T00:25:10.828Z,100879.88
2023-01-25T00:27:38.029Z,100883.94
2023-01-25T00:30:06.504Z,100876.38
2023-01-25T00:32:47.144Z,100891.31
2023-01-25T00:35:16.004Z,100874.63
2023-01-25T00:37:47.326Z,100872.19
2023-01-25T00:40:14.736Z,100887.16
2023-01-25T00:42:42.099Z,100873.72
2023-01-25T00:45:11.797Z,100883.69
2023-01-25T00:47:39.278Z,100860.31
2023-01-25T00:50:07.895Z,100864.41
2023-01-25T00:52:36.702Z,100853.66
2023-01-25T00:55:04.762Z,100857.75
2023-01-25T00:57:33.029Z,100862.78
2023-01-25T01:00:00.414Z,100860.22
2023-01-25T01:02:27.794Z,100861.88
2023-01-25T01:04:56.795Z,100853.47
2023-01-25T01:07:24.398Z,100845.94
2023-01-25T01:09:54.125Z,100848.50
2023-01-25T01:12:21.541Z,100856.84
2023-01-25T01:14:48.739Z,100847.66
2023-01-25T01:17:16.053Z,100851.09
2023-01-25T01:19:43.282Z,100847.81
2023-01-25T01:22:11.014Z,100843.59
2023-01-25T01:24:38.667Z,100843.50
2023-01-25T01:27:07.313Z,100841.00
2023-01-25T01:29:34.739Z,100844.47
2023-01-25T01:32:03.169Z,100829.41
2023-01-25T01:34:30.455Z,100820.50
2023-01-25T01:36:57.615Z,100832.16
2023-01-25T01:39:25.040Z,100825.47
2023-01-25T01:41:52.440Z,100813.75
2023-01-25T01:44:42.431Z,100813.09
2023-01-25T01:47:15.748Z,100796.53
2023-01-25T01:49:51.434Z,100804.88
2023-01-25T01:52:23.218Z,100809.84
2023-01-25T01:54:56.347Z,100804.72
2023-01-25T01:57:27.032Z,100793.28
2023-01-25T02:00:04.132Z,100800.97
2023-01-25T02:02:41.187Z,100812.47
2023-01-25T02:05:16.973Z,100804.16
2023-01-25T02:07:47.220Z,100798.38
2023-01-25T02:10:15.247Z,100804.25
2023-01-25T02:12:45.661Z,100787.63
2023-01-25T02:15:14.815Z,100787.47
2023-01-25T02:17:42.709Z,100784.09
2023-01-25T02:20:24.285Z,100792.47
2023-01-25T02:22:59.725Z,100793.31
2023-01-25T02:25:29.117Z,100789.88
2023-01-25T02:28:01.256Z,100797.22
2023-01-25T02:30:29.049Z,100796.53
2023-01-25T02:32:56.319Z,100792.34
2023-01-25T02:35:35.786Z,100804.16
2023-01-25T02:38:03.455Z,100801.66
2023-01-25T02:40:36.839Z,100795.09
2023-01-25T02:43:04.243Z,100793.41
2023-01-25T02:45:32.045Z,100799.19
2023-01-25T02:47:59.332Z,100800.00
2023-01-25T02:50:26.799Z,100803.25
2023-01-25T02:52:54.302Z,100807.38
2023-01-25T02:55:22.158Z,100809.00
2023-01-25T02:57:51.957Z,100810.63
2023-01-25T03:00:19.800Z,100817.31
2023-01-25T03:02:47.684Z,100806.38
2023-01-25T03:05:15.186Z,100802.25
2023-01-25T03:07:42.574Z,100797.22
2023-01-25T03:10:11.365Z,100803.94
2023-01-25T03:12:39.937Z,100804.00
2023-01-25T03:15:10.575Z,100800.69
2023-01-25T03:17:37.992Z,100804.00
2023-01-25T03:20:06.298Z,100806.56
2023-01-25T03:22:34.505Z,100796.53
2023-01-25T03:25:02.420Z,100800.81
2023-01-25T03:27:31.095Z,100785.06
2023-01-25T03:30:09.485Z,100785.91
2023-01-25T03:32:37.961Z,100775.16
2023-01-25T03:35:09.983Z,100782.53
2023-01-25T03:37:37.542Z,100770.94
2023-01-25T03:40:07.125Z,100774.31
2023-01-25T03:42:34.736Z,100775.94
2023-01-25T03:45:03.588Z,100771.81
2023-01-25T03:47:32.867Z,100762.75
2023-01-25T03:50:00.126Z,100762.47
2023-01-25T03:53:19.336Z,100769.22
2023-01-25T03:55:50.394Z,100786.94
2023-01-25T03:58:18.536Z,100782.00
2023-01-25T04:00:46.088Z,100788.63
2023-01-25T04:03:16.114Z,100790.41
2023-01-25T04:05:44.065Z,100792.06
2023-01-25T04:08:11.938Z,100796.94
2023-01-25T04:10:40.691Z,100790.22
2023-01-25T04:13:09.197Z,100786.09
2023-01-25T04:15:37.229Z,100789.28
2023-01-25T04:18:12.177Z,100775.88
2023-01-25T04:20:42.428Z,100780.03
2023-01-25T04:23:11.500Z,100774.94
2023-01-25T04:25:39.064Z,100770.75
2023-01-25T04:28:12.317Z,100768.22
2023-01-25T04:30:39.717Z,100773.41
2023-01-25T04:33:08.151Z,100754.16
2023-01-25T04:35:35.700Z,100764.47
2023-01-25T04:38:07.324Z,100757.72
2023-01-25T04:40:39.378Z,100760.13
2023-01-25T04:43:06.760Z,100780.22
2023-01-25T04:45:36.511Z,100780.25
2023-01-25T04:48:10.073Z,100786.94
2023-01-25T04:50:41.263Z,100786.09
2023-01-25T04:53:12.367Z,100785.19
2023-01-25T04:55:40.271Z,100777.66
2023-01-25T04:58:09.071Z,100793.44
2023-01-25T05:00:37.042Z,100800.97
2023-01-25T05:03:04.751Z,100800.88
2023-01-25T05:05:32.043Z,100793.44
2023-01-25T05:08:01.888Z,100795.13
2023-01-25T05:10:31.347Z,100795.94
2023-01-25T05:13:25.165Z,100788.47
2023-01-25T05:16:00.933Z,100791.75
2023-01-25T05:18:35.835Z,100796.81
2023-01-25T05:21:31.260Z,100787.56
2023-01-25T05:23:58.873Z,100790.13
2023-01-25T05:26:46.258Z,100780.06
2023-01-25T05:29:13.698Z,100794.41
2023-01-25T05:31:49.316Z,100796.94
2023-01-25T05:34:16.799Z,100792.88
2023-01-25T05:36:44.165Z,100794.53
2023-01-25T05:39:11.677Z,100795.31
2023-01-25T05:41:40.600Z,100791.16
2023-01-25T05:44:07.891Z,100804.47
2023-01-25T05:46:39.911Z,100789.38
2023-01-25T05:49:07.789Z,100795.16
2023-01-25T05:51:35.849Z,100803.38
2023-01-25T05:54:03.379Z,100800.88
2023-01-25T05:56:30.916Z,100793.31
2023-01-25T05:59:02.196Z,100801.53
2023-01-25T06:01:30.405Z,100802.41
2023-01-25T06:03:59.102Z,100792.38
2023-01-25T06:06:26.500Z,100789.84
2023-01-25T06:08:53.806Z,100784.81
2023-01-25T06:11:22.910Z,100763.47
2023-01-25T06:13:51.659Z,100791.47
2023-01-25T06:16:20.860Z,100799.88
2023-01-25T06:19:05.080Z,100794.84
2023-01-25T06:21:47.160Z,100791.47
2023-01-25T06:24:14.500Z,100790.66
2023-01-25T06:26:42.248Z,100790.75
2023-01-25T06:29:09.916Z,100795.84
2023-01-25T06:31:38.719Z,100790.97
2023-01-25T06:34:06.607Z,100791.16
2023-01-25T06:36:34.817Z,100791.22
2023-01-25T06:39:02.646Z,100787.91
2023-01-25T06:41:30.039Z,100783.00
2023-01-25T06:43:57.544Z,100776.28
2023-01-25T06:46:25.002Z,100782.03
2023-01-25T06:48:53.858Z,100789.56
2023-01-25T06:51:21.137Z,100790.34
2023-01-25T06:53:48.543Z,100795.31
2023-01-25T06:56:21.695Z,100787.59
2023-01-25T06:58:49.780Z,100793.44
2023-01-25T07:01:22.576Z,100796.03
2023-01-25T07:03:50.930Z,100797.00
2023-01-25T07:06:20.322Z,100798.75
2023-01-25T07:08:48.345Z,100797.06
2023-01-25T07:11:16.521Z,100794.53
2023-01-25T07:13:45.956Z,100804.44
2023-01-25T07:16:15.073Z,100792.03
2023-01-25T07:18:42.892Z,100795.38
2023-01-25T07:21:13.251Z,100791.16
2023-01-25T07:23:42.486Z,100791.00
2023-01-25T07:26:16.784Z,100782.69
2023-01-25T07:28:44.562Z,100778.38
2023-01-25T07:31:12.129Z,100780.75
2023-01-25T07:33:39.449Z,100787.28
2023-01-25T07:36:08.835Z,100773.25
2023-01-25T07:38:36.916Z,100782.22
2023-01-25T07:41:05.890Z,100787.25
2023-01-25T07:43:33.269Z,100783.13
2023-01-25T07:46:04.498Z,100782.25
2023-01-25T07:48:33.207Z,100779.72
2023-01-25T07:51:13.006Z,100787.19
2023-01-25T07:53:40.897Z,100779.59
2023-01-25T07:56:12.737Z,100783.69
2023-01-25T07:58:40.585Z,100776.28
2023-01-25T08:01:09.266Z,100782.22
2023-01-25T08:03:37.422Z,100776.25
2023-01-25T08:06:05.596Z,100776.13
2023-01-25T08:08:34.100Z,100765.25
2023-01-25T08:11:06.964Z,100779.28
2023-01-25T08:13:35.754Z,100764.25
2023-01-25T08:16:03.046Z,100768.38
2023-01-25T08:18:30.445Z,100764.41
2023-01-25T08:20:59.065Z,100767.75
2023-01-25T08:23:26.881Z,100763.53
2023-01-25T08:25:54.295Z,100766.88
2023-01-25T08:28:22.566Z,100768.47
2023-01-25T08:30:57.207Z,100763.53
2023-01-25T08:33:25.004Z,100759.50
2023-01-25T08:35:56.546Z,100763.69
2023-01-25T08:38:24.201Z,100769.53
2023-01-25T08:40:52.127Z,100768.63
2023-01-25T08:43:19.722Z,100767.75
2023-01-25T08:45:48.216Z,100759.34
2023-01-25T08:48:16.931Z,100757.66
2023-01-25T08:50:49.942Z,100755.22
2023-01-25T08:53:17.330Z,100745.19
2023-01-25T08:55:45.073Z,100748.41
2023-01-25T08:58:13.324Z,100752.50
2023-01-25T09:00:41.465Z,100755.75
2023-01-25T09:03:09.615Z,100739.78
2023-01-25T09:05:39.261Z,100745.56
2023-01-25T09:08:08.097Z,100724.50
2023-01-25T09:10:36.135Z,100729.41
2023-01-25T09:13:03.372Z,100727.19
2023-01-25T09:15:30.771Z,100710.50
2023-01-25T09:17:58.194Z,100705.41
2023-01-25T09:20:25.605Z,100712.88
2023-01-25T09:22:55.036Z,100709.34
2023-01-25T09:25:22.482Z,100697.78
2023-01-25T09:27:51.052Z,100700.38
2023-01-25T09:30:19.685Z,100702.91
2023-01-25T09:32:52.884Z,100707.19
2023-01-25T09:35:23.905Z,100706.34
2023-01-25T09:37:53.179Z,100707.25
2023-01-25T09:40:23.914Z,100709.75
2023-01-25T09:43:00.200Z,100700.38
2023-01-25T09:45:32.994Z,100694.63
2023-01-25T09:48:03.315Z,100688.09
2023-01-25T09:50:36.874Z,100670.81
2023-01-25T09:53:19.372Z,100669.00
2023-01-25T09:55:54.204Z,100675.66
2023-01-25T09:58:28.167Z,100664.75
2023-01-25T10:01:14.105Z,100654.94
2023-01-25T10:03:48.388Z,100660.31
2023-01-25T10:06:18.146Z,100640.25
2023-01-25T10:08:54.085Z,100651.44
2023-01-25T10:11:25.913Z,100646.69
2023-01-25T10:13:56.114Z,100643.38
2023-01-25T10:16:28.597Z,100639.22
2023-01-25T10:19:05.134Z,100629.13
2023-01-25T10:21:39.207Z,100623.94
2023-01-25T10:24:28.049Z,100618.81
2023-01-25T10:26:57.832Z,100611.19
2023-01-25T10:29:28.731Z,100620.09
2023-01-25T10:32:02.451Z,100609.66
2023-01-25T10:34:47.045Z,100624.75
2023-01-25T10:37:24.819Z,100618.91
2023-01-25T10:40:02.105Z,100615.72
2023-01-25T10:42:39.099Z,100626.47
2023-01-25T10:45:12.065Z,100629.81
2023-01-25T10:47:42.124Z,100627.97
2023-01-25T10:50:31.024Z,100616.22
2023-01-25T10:52:59.260Z,100604.34
2023-01-25T10:55:28.591Z,100620.59
2023-01-25T10:58:00.946Z,100601.41
2023-01-25T11:00:32.053Z,100599.69
2023-01-25T11:02:59.498Z,100603.91
2023-01-25T11:05:30.687Z,100588.38
2023-01-25T11:07:58.848Z,100593.19
2023-01-25T11:10:33.110Z,100591.66
2023-01-25T11:13:23.262Z,100591.88
2023-01-25T11:15:53.449Z,100574.53
2023-01-25T11:18:23.278Z,100572.88
2023-01-25T11:21:06.163Z,100578.56
2023-01-25T11:23:34.780Z,100574.41
2023-01-25T11:26:15.441Z,100580.94
2023-01-25T11:28:44.708Z,100574.66
2023-01-25T11:31:14.860Z,100564.72
2023-01-25T11:33:43.755Z,100562.22
2023-01-25T11:36:25.491Z,100559.03
2023-01-25T11:39:10.425Z,100543.50
2023-01-25T11:41:49.418Z,100560.50
2023-01-25T11:44:55.871Z,100560.31
2023-01-25T11:47:38.126Z,100553.63
2023-01-25T11:50:15.418Z,100548.03
2023-01-25T11:53:00.512Z,100549.56
2023-01-25T11:55:32.082Z,100543.00
2023-01-25T11:58:17.571Z,100546.38
2023-01-25T12:00:56.173Z,100539.91
2023-01-25T12:04:05.684Z,100538.84
2023-01-25T12:06:49.057Z,100515.91
2023-01-25T12:09:29.837Z,100539.31
2023-01-25T12:12:08.936Z,100536.44
2023-01-25T12:14:52.711Z,100531.31
2023-01-25T12:17:31.656Z,100553.25
2023-01-25T12:20:24.749Z,100541.34
2023-01-25T12:23:12.853Z,100547.97
2023-01-25T12:25:52.614Z,100538.75
2023-01-25T12:28:23.124Z,100551.19
2023-01-25T12:30:56.956Z,100538.56
2023-01-25T12:33:31.629Z,100533.47
2023-01-25T12:36:06.866Z,100523.69
2023-01-25T12:38:40.335Z,100515.47
2023-01-25T12:41:20.536Z,100530.09
2023-01-25T12:43:53.984Z,100519.50
2023-01-25T12:46:28.612Z,100528.81
2023-01-25T12:49:00.454Z,100528.72
2023-01-25T12:51:34.209Z,100519.59
2023-01-25T12:54:06.973Z,100518.09
2023-01-25T12:56:44.032Z,100506.22
2023-01-25T12:59:19.611Z,100518.00
2023-01-25T13:01:54.635Z,100500.66
2023-01-25T13:04:36.968Z,100506.88
2023-01-25T13:07:16.399Z,100504.59
2023-01-25T13:09:52.205Z,100492.06
2023-01-25T13:12:19.758Z,100496.16
2023-01-25T13:14:46.911Z,100500.44
2023-01-25T13:17:25.068Z,100496.28
2023-01-25T13:19:53.544Z,100491.31
2023-01-25T13:22:58.815Z,100493.00
2023-01-25T13:25:27.676Z,100494.66
2023-01-25T13:28:45.153Z,100494.31
2023-01-25T13:31:53.739Z,100486.59
2023-01-25T13:34:50.961Z,100491.06
2023-01-25T13:37:20.906Z,100475.50
2023-01-25T13:39:50.762Z,100472.25
2023-01-25T13:42:22.685Z,100474.69
2023-01-25T13:44:52.109Z,100476.34
2023-01-25T13:47:23.446Z,100473.81
2023-01-25T13:49:57.528Z,100461.16
2023-01-25T13:52:28.030Z,100455.22
2023-01-25T13:54:57.466Z,100450.94
2023-01-25T13:57:26.354Z,100442.06
2023-01-25T14:00:11.281Z,100442.94
2023-01-25T14:02:40.624Z,100421.31
2023-01-25T14:05:19.008Z,100433.91
2023-01-25T14:07:50.665Z,100426.69
2023-01-25T14:10:23.685Z,100427.00
2023-01-25T14:12:53.294Z,100419.34
2023-01-25T14:15:23.402Z,100419.56
2023-01-25T14:18:14.333Z,100404.50
2023-01-25T14:20:41.950Z,100409.44
2023-01-25T14:23:24.264Z,100405.53
2023-01-25T14:25:54.026Z,100408.16
2023-01-25T14:28:21.872Z,100408.94
2023-01-25T14:30:53.538Z,100415.53
2023-01-25T14:33:26.415Z,100412.34
2023-01-25T14:35:58.567Z,100404.16
2023-01-25T14:38:33.805Z,100411.66
2023-01-25T14:41:07.747Z,100410.91
2023-01-25T14:43:37.394Z,100400.69
2023-01-25T14:46:22.248Z,100404.78
2023-01-25T14:48:50.220Z,100401.63
2023-01-25T14:51:29.022Z,100399.16
2023-01-25T14:54:01.549Z,100393.09
2023-01-25T14:56:42.204Z,100391.66
2023-01-25T14:59:24.403Z,100397.34
2023-01-25T15:01:54.465Z,100402.13
2023-01-25T15:04:21.904Z,100408.81
2023-01-25T15:07:09.028Z,100410.63
2023-01-25T15:10:03.891Z,100395.06
2023-01-25T15:12:33.166Z,100403.56
2023-01-25T15:15:01.040Z,100391.50
2023-01-25T15:17:42.129Z,100393.81
2023-01-25T15:20:31.264Z,100394.69
2023-01-25T15:23:25.560Z,100396.97
2023-01-25T15:26:14.454Z,100397.00
2023-01-25T15:28:56.783Z,100421.38
2023-01-25T15:31:29.147Z,100403.47
2023-01-25T15:34:01.632Z,100407.78
2023-01-25T15:36:29.649Z,100400.13
2023-01-25T15:38:57.043Z,100410.81
2023-01-25T15:41:25.760Z,100406.00
2023-01-25T15:43:53.728Z,100392.72
2023-01-25T15:46:23.912Z,100403.03
2023-01-25T15:48:51.802Z,100388.78
2023-01-25T15:51:20.579Z,100380.22
2023-01-25T15:53:48.047Z,100382.69
2023-01-25T15:56:18.085Z,100381.97
2023-01-25T15:58:50.483Z,100383.75
2023-01-25T16:01:18.767Z,100380.28
2023-01-25T16:03:46.187Z,100370.19
2023-01-25T16:06:28.879Z,100376.78
2023-01-25T16:09:00.259Z,100385.19
2023-01-25T16:11:28.021Z,100381.97
2023-01-25T16:13:58.037Z,100382.03
2023-01-25T16:16:26.463Z,100380.38
2023-01-25T16:18:53.814Z,100369.09
2023-01-25T16:21:21.169Z,100364.41
2023-01-25T16:23:48.376Z,100369.38
2023-01-25T16:26:18.970Z,100363.69
2023-01-25T16:28:46.543Z,100362.00
2023-01-25T16:31:30.259Z,100371.94
2023-01-25T16:33:59.357Z,100368.56
2023-01-25T16:36:26.633Z,100356.06
2023-01-25T16:38:54.055Z,100344.78
2023-01-25T16:41:21.481Z,100360.53
2023-01-25T16:43:49.606Z,100363.22
2023-01-25T16:46:20.845Z,100339.69
2023-01-25T16:48:50.147Z,100321.06
2023-01-25T16:51:19.782Z,100339.50
2023-01-25T16:53:48.146Z,100335.19
2023-01-25T16:56:17.639Z,100340.28
2023-01-25T16:58:45.770Z,100335.59
2023-01-25T17:01:14.608Z,100337.56
2023-01-25T17:03:43.798Z,100334.38
2023-01-25T17:06:18.809Z,100337.97
2023-01-25T17:08:46.456Z,100327.16
2023-01-25T17:11:21.646Z,100331.44
2023-01-25T17:13:53.067Z,100332.13
2023-01-25T17:16:21.621Z,100334.03
2023-01-25T17:18:54.828Z,100339.09
2023-01-25T17:21:22.754Z,100337.97
2023-01-25T17:23:50.550Z,100337.25
2023-01-25T17:26:19.849Z,100339.84
2023-01-25T17:28:47.142Z,100333.28
2023-01-25T17:31:16.129Z,100331.50
2023-01-25T17:33:43.747Z,100333.06
2023-01-25T17:36:15.119Z,100330.66
2023-01-25T17:38:44.666Z,100324.13
2023-01-25T17:41:14.112Z,100318.19
2023-01-25T17:43:41.734Z,100318.13
2023-01-25T17:46:13.439Z,100319.75
2023-01-25T17:48:40.912Z,100318.03
2023-01-25T17:51:08.261Z,100311.25
2023-01-25T17:53:37.166Z,100313.66
2023-01-25T17:56:05.760Z,100320.22
2023-01-25T17:58:35.996Z,100318.13
2023-01-25T18:01:13.901Z,100311.78
2023-01-25T18:03:42.193Z,100315.81
2023-01-25T18:06:09.843Z,100308.25
2023-01-25T18:08:40.662Z,100308.88
2023-01-25T18:11:09.070Z,100308.41
2023-01-25T18:13:39.749Z,100313.53
2023-01-25T18:16:08.440Z,100306.34
2023-01-25T18:18:36.504Z,100299.53
2023-01-25T18:21:09.188Z,100292.22
2023-01-25T18:23:38.847Z,100295.59
2023-01-25T18:26:09.304Z,100305.59
2023-01-25T18:28:37.018Z,100313.94
2023-01-25T18:31:06.698Z,100298.91
2023-01-25T18:33:33.981Z,100306.44
2023-01-25T18:36:05.724Z,100299.09
2023-01-25T18:38:33.045Z,100298.03
2023-01-25T18:41:01.995Z,100284.34
2023-01-25T18:43:29.355Z,100291.44
2023-01-25T18:45:58.379Z,100283.69
2023-01-25T18:48:32.577Z,100280.47
2023-01-25T18:51:04.167Z,100272.97
2023-01-25T18:53:32.647Z,100275.47
2023-01-25T18:56:03.640Z,100266.09
2023-01-25T18:58:33.420Z,100274.56
2023-01-25T19:01:06.249Z,100267.50
2023-01-25T19:03:33.416Z,100262.13
2023-01-25T19:06:01.494Z,100264.66
2023-01-25T19:08:29.415Z,100255.50
2023-01-25T19:11:02.212Z,100258.31
2023-01-25T19:13:32.320Z,100257.56
2023-01-25T19:16:01.357Z,100253.31
2023-01-25T19:18:34.353Z,100253.72
2023-01-25T19:21:02.337Z,100260.16
2023-01-25T19:23:34.048Z,100249.31
2023-01-25T19:26:03.217Z,100241.88
2023-01-25T19:28:30.991Z,100232.13
2023-01-25T19:31:06.319Z,100227.13
2023-01-25T19:33:33.882Z,100227.78
2023-01-25T19:36:04.415Z,100216.09
2023-01-25T19:38:32.103Z,100217.75
2023-01-25T19:41:05.507Z,100210.03
2023-01-25T19:43:33.416Z,100224.34
2023-01-25T19:46:08.617Z,100221.03
2023-01-25T19:48:36.211Z,100225.13
2023-01-25T19:51:08.600Z,100220.88
2023-01-25T19:53:35.998Z,100210.72
2023-01-25T19:56:05.620Z,100206.81
2023-01-25T19:58:33.296Z,100212.69
2023-01-25T20:01:07.981Z,100223.38
2023-01-25T20:03:36.073Z,100208.13
2023-01-25T20:06:05.266Z,100216.41
2023-01-25T20:08:33.967Z,100215.59
2023-01-25T20:11:02.728Z,100218.66
2023-01-25T20:13:31.314Z,100206.50
2023-01-25T20:15:58.696Z,100214.06
2023-01-25T20:18:27.116Z,100200.72
2023-01-25T20:20:56.086Z,100197.19
2023-01-25T20:23:23.653Z,100203.00
2023-01-25T20:25:58.381Z,100197.06
2023-01-25T20:28:26.064Z,100208.13
2023-01-25T20:30:55.049Z,100200.50
2023-01-25T20:33:22.381Z,100192.13
2023-01-25T20:35:50.314Z,100189.38
2023-01-25T20:38:17.646Z,100189.38
2023-01-25T20:40:44.957Z,100181.38
2023-01-25T20:43:12.134Z,100195.50
2023-01-25T20:45:39.541Z,100188.81
2023-01-25T20:48:08.642Z,100191.22
2023-01-25T20:50:35.924Z,100181.00
2023-01-25T20:53:03.227Z,100183.03
2023-01-25T20:55:30.687Z,100184.69
2023-01-25T20:57:58.293Z,100175.66
2023-01-25T21:00:25.980Z,100175.66
2023-01-25T21:02:53.435Z,100166.19
2023-01-25T21:05:22.103Z,100169.47
2023-01-25T21:07:49.527Z,100154.66
2023-01-25T21:10:17.598Z,100163.03
2023-01-25T21:12:45.267Z,100148.78
2023-01-25T21:15:12.703Z,100149.56
2023-01-25T21:17:40.098Z,100151.94
2023-01-25T21:20:09.036Z,100143.00
2023-01-25T21:22:37.971Z,100146.28
2023-01-25T21:25:05.603Z,100136.91
2023-01-25T21:27:32.768Z,100133.53
2023-01-25T21:30:00.184Z,100143.09
2023-01-25T21:32:28.911Z,100149.09
2023-01-25T21:34:56.419Z,100149.09
2023-01-25T21:37:23.784Z,100145.84
2023-01-25T21:39:52.543Z,100137.94
2023-01-25T21:42:19.756Z,100139.75
2023-01-25T21:45:05.427Z,100129.72
2023-01-25T21:47:33.348Z,100124.91
2023-01-25T21:50:19.116Z,100128.09
2023-01-25T21:52:46.347Z,100141.72
2023-01-25T21:55:15.187Z,100144.34
2023-01-25T21:57:47.219Z,100136.78
2023-01-25T22:00:16.591Z,100132.59
2023-01-25T22:02:44.436Z,100141.72
2023-01-25T22:05:11.822Z,100130.75
2023-01-25T22:07:39.187Z,100127.53
2023-01-25T22:10:07.031Z,100127.53
2023-01-25T22:12:35.774Z,100133.41
2023-01-25T22:15:03.336Z,100120.34
2023-01-25T22:17:30.896Z,100123.28
2023-01-25T22:19:58.179Z,100118.28
2023-01-25T22:22:25.601Z,100118.19
2023-01-25T22:24:52.892Z,100117.91
2023-01-25T22:27:44.876Z,100120.25
2023-01-25T22:30:13.322Z,100112.06
2023-01-25T22:32:41.073Z,100119.38
2023-01-25T22:35:09.097Z,100109.41
2023-01-25T22:37:38.155Z,100111.88
2023-01-25T22:40:07.466Z,100104.44
2023-01-25T22:42:35.235Z,100099.75
2023-01-25T22:45:05.012Z,100114.78
2023-01-25T22:47:32.258Z,100105.63
2023-01-25T22:49:59.627Z,100113.00
2023-01-25T22:52:26.788Z,100110.53
2023-01-25T22:54:54.133Z,100097.25
2023-01-25T22:57:21.596Z,100101.44
2023-01-25T22:59:48.927Z,100090.72
2023-01-25T23:02:17.855Z,100097.16
2023-01-25T23:04:45.057Z,100083.06
2023-01-25T23:07:12.895Z,100084.00
2023-01-25T23:09:40.774Z,100094.06
2023-01-25T23:12:08.370Z,100082.81
2023-01-25T23:14:51.512Z,100073.97
2023-01-25T23:17:40.881Z,100064.53
2023-01-25T23:20:10.854Z,100066.69
2023-01-25T23:22:38.272Z,100059.06
2023-01-25T23:25:06.849Z,100061.31
2023-01-25T23:27:34.097Z,100069.94
2023-01-25T23:30:01.548Z,100070.81
2023-01-25T23:32:32.114Z,100065.69
2023-01-25T23:34:59.631Z,100062.31
2023-01-25T23:37:26.849Z,100064.16
2023-01-25T23:39:54.087Z,100055.34
2023-01-25T23:42:21.499Z,100070.59
2023-01-25T23:44:48.878Z,100060.69
2023-01-25T23:47:16.767Z,100061.31
2023-01-25T23:49:45.466Z,100063.06
2023-01-25T23:52:12.826Z,100060.69
2023-01-25T23:54:40.137Z,100065.47
2023-01-25T23:57:07.621Z,100063.84
2023-01-25T23:59:34.772Z,100060.56
